sensor_id;sensor_type;location;lat;lon;timestamp;P1;durP1;ratioP1;P2;durP2;ratioP2
19509;SDS011;9896;42.486;26.506;2022-12-10T00:02:06;77.37;;;36.50;;
19509;SDS011;9896;42.486;26.506;2022-12-10T00:04:31;91.97;;;41.00;;
19509;SDS011;9896;42.486;26.506;2022-12-10T00:06:57;96.27;;;42.90;;
19509;SDS011;9896;42.486;26.506;2022-12-10T00:09:22;73.87;;;31.93;;
19509;SDS011;9896;42.486;26.506;2022-12-10T00:11:48;78.00;;;33.40;;
19509;SDS011;9896;42.486;26.506;2022-12-10T00:14:13;96.40;;;39.83;;
19509;SDS011;9896;42.486;26.506;2022-12-10T00:16:38;91.40;;;40.20;;
19509;SDS011;9896;42.486;26.506;2022-12-10T00:19:04;67.77;;;27.97;;
19509;SDS011;9896;42.486;26.506;2022-12-10T00:21:30;90.80;;;40.30;;
19509;SDS011;9896;42.486;26.506;2022-12-10T00:23:56;82.80;;;37.23;;
19509;SDS011;9896;42.486;26.506;2022-12-10T00:26:28;90.67;;;39.57;;
19509;SDS011;9896;42.486;26.506;2022-12-10T00:28:54;74.27;;;30.87;;
19509;SDS011;9896;42.486;26.506;2022-12-10T00:31:25;99.37;;;39.13;;
19509;SDS011;9896;42.486;26.506;2022-12-10T00:33:52;77.80;;;30.43;;
19509;SDS011;9896;42.486;26.506;2022-12-10T00:36:19;44.63;;;12.83;;
19509;SDS011;9896;42.486;26.506;2022-12-10T00:38:45;33.63;;;12.03;;
19509;SDS011;9896;42.486;26.506;2022-12-10T00:41:11;43.77;;;14.50;;
19509;SDS011;9896;42.486;26.506;2022-12-10T00:43:37;37.87;;;13.17;;
19509;SDS011;9896;42.486;26.506;2022-12-10T00:46:03;33.90;;;13.43;;
19509;SDS011;9896;42.486;26.506;2022-12-10T00:48:28;30.77;;;12.73;;
19509;SDS011;9896;42.486;26.506;2022-12-10T00:51:00;50.13;;;17.50;;
19509;SDS011;9896;42.486;26.506;2022-12-10T00:53:26;44.17;;;16.87;;
19509;SDS011;9896;42.486;26.506;2022-12-10T00:55:52;84.03;;;36.23;;
19509;SDS011;9896;42.486;26.506;2022-12-10T00:58:18;44.87;;;16.60;;
19509;SDS011;9896;42.486;26.506;2022-12-10T01:00:44;48.33;;;14.97;;
19509;SDS011;9896;42.486;26.506;2022-12-10T01:03:09;50.63;;;15.63;;
19509;SDS011;9896;42.486;26.506;2022-12-10T01:05:35;38.50;;;14.27;;
19509;SDS011;9896;42.486;26.506;2022-12-10T01:08:00;41.50;;;13.50;;
19509;SDS011;9896;42.486;26.506;2022-12-10T01:10:25;54.10;;;18.23;;
19509;SDS011;9896;42.486;26.506;2022-12-10T01:12:51;62.13;;;27.70;;
19509;SDS011;9896;42.486;26.506;2022-12-10T01:15:16;61.80;;;29.83;;
19509;SDS011;9896;42.486;26.506;2022-12-10T01:17:42;67.07;;;25.87;;
19509;SDS011;9896;42.486;26.506;2022-12-10T01:20:07;53.47;;;19.30;;
19509;SDS011;9896;42.486;26.506;2022-12-10T01:22:32;50.10;;;21.90;;
19509;SDS011;9896;42.486;26.506;2022-12-10T01:24:58;61.50;;;28.37;;
19509;SDS011;9896;42.486;26.506;2022-12-10T01:27:23;58.80;;;27.57;;
19509;SDS011;9896;42.486;26.506;2022-12-10T01:29:48;51.57;;;23.57;;
19509;SDS011;9896;42.486;26.506;2022-12-10T01:32:14;47.97;;;14.50;;
19509;SDS011;9896;42.486;26.506;2022-12-10T01:34:39;39.70;;;15.47;;
19509;SDS011;9896;42.486;26.506;2022-12-10T01:37:04;43.60;;;15.60;;
19509;SDS011;9896;42.486;26.506;2022-12-10T01:39:30;44.43;;;16.60;;
19509;SDS011;9896;42.486;26.506;2022-12-10T01:41:57;53.20;;;21.63;;
19509;SDS011;9896;42.486;26.506;2022-12-10T01:46:49;51.30;;;22.70;;
19509;SDS011;9896;42.486;26.506;2022-12-10T01:49:25;62.83;;;29.30;;
19509;SDS011;9896;42.486;26.506;2022-12-10T01:51:53;53.10;;;17.93;;
19509;SDS011;9896;42.486;26.506;2022-12-10T01:54:23;46.00;;;20.13;;
19509;SDS011;9896;42.486;26.506;2022-12-10T01:57:05;60.70;;;30.40;;
19509;SDS011;9896;42.486;26.506;2022-12-10T01:59:31;67.73;;;31.17;;
19509;SDS011;9896;42.486;26.506;2022-12-10T02:07:27;42.43;;;15.57;;
19509;SDS011;9896;42.486;26.506;2022-12-10T02:10:19;52.27;;;21.53;;
19509;SDS011;9896;42.486;26.506;2022-12-10T02:12:44;47.17;;;19.37;;
19509;SDS011;9896;42.486;26.506;2022-12-10T02:15:15;80.30;;;33.30;;
19509;SDS011;9896;42.486;26.506;2022-12-10T02:23:20;58.13;;;23.33;;
19509;SDS011;9896;42.486;26.506;2022-12-10T02:30:55;60.53;;;20.03;;
19509;SDS011;9896;42.486;26.506;2022-12-10T02:33:21;61.97;;;27.00;;
19509;SDS011;9896;42.486;26.506;2022-12-10T02:35:48;73.73;;;28.23;;
19509;SDS011;9896;42.486;26.506;2022-12-10T02:38:16;57.00;;;24.57;;
19509;SDS011;9896;42.486;26.506;2022-12-10T02:40:44;64.27;;;26.57;;
19509;SDS011;9896;42.486;26.506;2022-12-10T02:43:12;47.10;;;16.50;;
19509;SDS011;9896;42.486;26.506;2022-12-10T02:45:37;55.73;;;17.57;;
19509;SDS011;9896;42.486;26.506;2022-12-10T02:48:03;42.03;;;14.93;;
19509;SDS011;9896;42.486;26.506;2022-12-10T02:50:29;43.63;;;16.03;;
19509;SDS011;9896;42.486;26.506;2022-12-10T02:52:55;62.50;;;25.37;;
19509;SDS011;9896;42.486;26.506;2022-12-10T02:55:20;56.13;;;25.63;;
19509;SDS011;9896;42.486;26.506;2022-12-10T03:00:36;65.97;;;29.20;;
19509;SDS011;9896;42.486;26.506;2022-12-10T03:08:05;68.80;;;31.67;;
19509;SDS011;9896;42.486;26.506;2022-12-10T03:10:35;57.47;;;26.67;;
19509;SDS011;9896;42.486;26.506;2022-12-10T03:13:03;59.77;;;25.63;;
19509;SDS011;9896;42.486;26.506;2022-12-10T03:15:31;64.43;;;27.17;;
19509;SDS011;9896;42.486;26.506;2022-12-10T03:17:58;61.03;;;28.10;;
19509;SDS011;9896;42.486;26.506;2022-12-10T03:20:26;53.03;;;23.37;;
19509;SDS011;9896;42.486;26.506;2022-12-10T03:22:51;44.80;;;15.00;;
19509;SDS011;9896;42.486;26.506;2022-12-10T03:25:19;49.47;;;19.10;;
19509;SDS011;9896;42.486;26.506;2022-12-10T03:27:47;39.73;;;15.87;;
19509;SDS011;9896;42.486;26.506;2022-12-10T03:30:14;40.63;;;15.90;;
19509;SDS011;9896;42.486;26.506;2022-12-10T03:32:40;52.13;;;21.80;;
19509;SDS011;9896;42.486;26.506;2022-12-10T03:35:07;48.53;;;21.53;;
19509;SDS011;9896;42.486;26.506;2022-12-10T03:37:32;63.80;;;26.07;;
19509;SDS011;9896;42.486;26.506;2022-12-10T03:39:59;74.03;;;28.13;;
19509;SDS011;9896;42.486;26.506;2022-12-10T03:42:24;66.20;;;25.93;;
19509;SDS011;9896;42.486;26.506;2022-12-10T03:44:50;71.53;;;32.43;;
19509;SDS011;9896;42.486;26.506;2022-12-10T03:47:16;78.37;;;32.20;;
19509;SDS011;9896;42.486;26.506;2022-12-10T03:49:42;78.40;;;34.87;;
19509;SDS011;9896;42.486;26.506;2022-12-10T03:52:07;77.53;;;31.73;;
19509;SDS011;9896;42.486;26.506;2022-12-10T03:54:32;76.87;;;33.13;;
19509;SDS011;9896;42.486;26.506;2022-12-10T03:56:58;55.10;;;24.63;;
19509;SDS011;9896;42.486;26.506;2022-12-10T03:59:23;83.20;;;35.73;;
19509;SDS011;9896;42.486;26.506;2022-12-10T04:01:49;45.77;;;17.33;;
19509;SDS011;9896;42.486;26.506;2022-12-10T04:04:14;54.20;;;20.00;;
19509;SDS011;9896;42.486;26.506;2022-12-10T04:06:40;83.30;;;33.13;;
19509;SDS011;9896;42.486;26.506;2022-12-10T04:09:06;107.77;;;43.13;;
19509;SDS011;9896;42.486;26.506;2022-12-10T04:11:31;49.67;;;15.20;;
19509;SDS011;9896;42.486;26.506;2022-12-10T04:13:57;53.70;;;21.13;;
19509;SDS011;9896;42.486;26.506;2022-12-10T04:16:41;46.63;;;16.67;;
19509;SDS011;9896;42.486;26.506;2022-12-10T04:19:08;64.70;;;22.93;;
19509;SDS011;9896;42.486;26.506;2022-12-10T04:21:34;59.37;;;25.10;;
19509;SDS011;9896;42.486;26.506;2022-12-10T04:24:19;58.63;;;25.47;;
19509;SDS011;9896;42.486;26.506;2022-12-10T04:27:05;76.00;;;30.40;;
19509;SDS011;9896;42.486;26.506;2022-12-10T04:29:31;72.30;;;31.43;;
19509;SDS011;9896;42.486;26.506;2022-12-10T04:31:57;80.27;;;31.00;;
19509;SDS011;9896;42.486;26.506;2022-12-10T04:34:23;70.03;;;29.20;;
19509;SDS011;9896;42.486;26.506;2022-12-10T04:36:49;77.63;;;29.47;;
19509;SDS011;9896;42.486;26.506;2022-12-10T04:39:15;70.73;;;30.43;;
19509;SDS011;9896;42.486;26.506;2022-12-10T04:41:41;68.53;;;29.80;;
19509;SDS011;9896;42.486;26.506;2022-12-10T04:44:07;72.70;;;30.03;;
19509;SDS011;9896;42.486;26.506;2022-12-10T04:46:32;74.80;;;31.20;;
19509;SDS011;9896;42.486;26.506;2022-12-10T04:48:58;78.00;;;29.67;;
19509;SDS011;9896;42.486;26.506;2022-12-10T04:51:23;78.07;;;29.90;;
19509;SDS011;9896;42.486;26.506;2022-12-10T04:53:49;68.73;;;30.27;;
19509;SDS011;9896;42.486;26.506;2022-12-10T04:56:14;72.13;;;27.27;;
19509;SDS011;9896;42.486;26.506;2022-12-10T04:58:39;67.90;;;26.17;;
19509;SDS011;9896;42.486;26.506;2022-12-10T05:01:06;69.37;;;27.23;;
19509;SDS011;9896;42.486;26.506;2022-12-10T05:03:31;67.00;;;30.10;;
19509;SDS011;9896;42.486;26.506;2022-12-10T05:06:06;78.80;;;29.57;;
19509;SDS011;9896;42.486;26.506;2022-12-10T05:08:33;65.63;;;28.30;;
19509;SDS011;9896;42.486;26.506;2022-12-10T05:11:02;62.93;;;28.57;;
19509;SDS011;9896;42.486;26.506;2022-12-10T05:13:28;66.20;;;28.00;;
19509;SDS011;9896;42.486;26.506;2022-12-10T05:15:53;72.90;;;30.37;;
19509;SDS011;9896;42.486;26.506;2022-12-10T05:18:19;70.00;;;30.17;;
19509;SDS011;9896;42.486;26.506;2022-12-10T05:20:44;76.27;;;30.33;;
19509;SDS011;9896;42.486;26.506;2022-12-10T05:23:10;65.77;;;29.27;;
19509;SDS011;9896;42.486;26.506;2022-12-10T05:28:28;79.87;;;31.20;;
19509;SDS011;9896;42.486;26.506;2022-12-10T05:30:54;71.67;;;31.77;;
19509;SDS011;9896;42.486;26.506;2022-12-10T05:33:19;72.37;;;31.07;;
19509;SDS011;9896;42.486;26.506;2022-12-10T05:38:19;72.90;;;32.00;;
19509;SDS011;9896;42.486;26.506;2022-12-10T05:40:45;69.47;;;31.53;;
19509;SDS011;9896;42.486;26.506;2022-12-10T05:43:11;70.60;;;30.97;;
19509;SDS011;9896;42.486;26.506;2022-12-10T05:45:36;66.53;;;28.70;;
19509;SDS011;9896;42.486;26.506;2022-12-10T05:48:01;66.83;;;29.30;;
19509;SDS011;9896;42.486;26.506;2022-12-10T05:50:27;63.43;;;28.63;;
19509;SDS011;9896;42.486;26.506;2022-12-10T05:52:52;75.37;;;30.03;;
19509;SDS011;9896;42.486;26.506;2022-12-10T05:55:17;74.63;;;31.67;;
19509;SDS011;9896;42.486;26.506;2022-12-10T05:57:43;79.53;;;30.83;;
19509;SDS011;9896;42.486;26.506;2022-12-10T06:00:09;69.10;;;28.43;;
19509;SDS011;9896;42.486;26.506;2022-12-10T06:02:34;74.27;;;30.23;;
19509;SDS011;9896;42.486;26.506;2022-12-10T06:05:00;69.97;;;30.17;;
19509;SDS011;9896;42.486;26.506;2022-12-10T06:07:25;64.40;;;29.80;;
19509;SDS011;9896;42.486;26.506;2022-12-10T06:09:50;71.90;;;29.67;;
19509;SDS011;9896;42.486;26.506;2022-12-10T06:12:16;73.87;;;30.80;;
19509;SDS011;9896;42.486;26.506;2022-12-10T06:14:41;77.10;;;31.80;;
19509;SDS011;9896;42.486;26.506;2022-12-10T06:17:07;76.23;;;31.67;;
19509;SDS011;9896;42.486;26.506;2022-12-10T06:19:32;68.30;;;32.13;;
19509;SDS011;9896;42.486;26.506;2022-12-10T06:21:58;70.53;;;31.93;;
19509;SDS011;9896;42.486;26.506;2022-12-10T06:24:23;72.73;;;31.87;;
19509;SDS011;9896;42.486;26.506;2022-12-10T06:26:49;74.50;;;32.80;;
19509;SDS011;9896;42.486;26.506;2022-12-10T06:29:14;69.17;;;30.57;;
19509;SDS011;9896;42.486;26.506;2022-12-10T06:31:40;69.97;;;31.57;;
19509;SDS011;9896;42.486;26.506;2022-12-10T06:34:06;72.53;;;33.57;;
19509;SDS011;9896;42.486;26.506;2022-12-10T06:36:32;74.10;;;31.70;;
19509;SDS011;9896;42.486;26.506;2022-12-10T06:38:57;72.03;;;33.03;;
19509;SDS011;9896;42.486;26.506;2022-12-10T06:41:23;75.63;;;32.83;;
19509;SDS011;9896;42.486;26.506;2022-12-10T06:43:49;80.83;;;34.40;;
19509;SDS011;9896;42.486;26.506;2022-12-10T06:46:15;78.37;;;33.43;;
19509;SDS011;9896;42.486;26.506;2022-12-10T06:48:41;70.73;;;32.87;;
19509;SDS011;9896;42.486;26.506;2022-12-10T06:51:06;74.37;;;30.80;;
19509;SDS011;9896;42.486;26.506;2022-12-10T06:53:33;67.43;;;31.33;;
19509;SDS011;9896;42.486;26.506;2022-12-10T06:55:59;72.03;;;31.90;;
19509;SDS011;9896;42.486;26.506;2022-12-10T06:58:26;62.07;;;28.87;;
19509;SDS011;9896;42.486;26.506;2022-12-10T07:00:51;65.07;;;29.20;;
19509;SDS011;9896;42.486;26.506;2022-12-10T07:03:17;62.10;;;26.93;;
19509;SDS011;9896;42.486;26.506;2022-12-10T07:05:42;49.20;;;22.13;;
19509;SDS011;9896;42.486;26.506;2022-12-10T07:08:08;63.87;;;29.10;;
19509;SDS011;9896;42.486;26.506;2022-12-10T07:10:33;55.83;;;27.40;;
19509;SDS011;9896;42.486;26.506;2022-12-10T07:12:58;34.87;;;15.40;;
19509;SDS011;9896;42.486;26.506;2022-12-10T07:15:25;45.30;;;15.93;;
19509;SDS011;9896;42.486;26.506;2022-12-10T07:17:52;67.47;;;29.23;;
19509;SDS011;9896;42.486;26.506;2022-12-10T07:20:17;48.67;;;20.07;;
19509;SDS011;9896;42.486;26.506;2022-12-10T07:22:43;34.50;;;14.77;;
19509;SDS011;9896;42.486;26.506;2022-12-10T07:25:08;44.27;;;15.43;;
19509;SDS011;9896;42.486;26.506;2022-12-10T07:27:34;40.03;;;15.90;;
19509;SDS011;9896;42.486;26.506;2022-12-10T07:29:59;40.47;;;17.67;;
19509;SDS011;9896;42.486;26.506;2022-12-10T07:32:26;72.83;;;34.67;;
19509;SDS011;9896;42.486;26.506;2022-12-10T07:34:51;67.13;;;28.80;;
19509;SDS011;9896;42.486;26.506;2022-12-10T07:37:17;85.87;;;35.73;;
19509;SDS011;9896;42.486;26.506;2022-12-10T07:39:42;73.77;;;34.60;;
19509;SDS011;9896;42.486;26.506;2022-12-10T07:42:08;66.43;;;30.10;;
19509;SDS011;9896;42.486;26.506;2022-12-10T07:44:33;75.43;;;33.77;;
19509;SDS011;9896;42.486;26.506;2022-12-10T07:46:58;48.00;;;22.63;;
19509;SDS011;9896;42.486;26.506;2022-12-10T07:49:24;72.40;;;33.80;;
19509;SDS011;9896;42.486;26.506;2022-12-10T07:51:49;90.80;;;37.80;;
19509;SDS011;9896;42.486;26.506;2022-12-10T07:54:15;69.43;;;34.23;;
19509;SDS011;9896;42.486;26.506;2022-12-10T07:56:40;82.33;;;36.87;;
19509;SDS011;9896;42.486;26.506;2022-12-10T07:59:06;71.97;;;36.57;;
19509;SDS011;9896;42.486;26.506;2022-12-10T08:01:31;97.77;;;37.43;;
19509;SDS011;9896;42.486;26.506;2022-12-10T08:03:57;83.13;;;34.77;;
19509;SDS011;9896;42.486;26.506;2022-12-10T08:06:22;67.00;;;32.43;;
19509;SDS011;9896;42.486;26.506;2022-12-10T08:08:49;64.03;;;28.63;;
19509;SDS011;9896;42.486;26.506;2022-12-10T08:11:15;44.67;;;18.80;;
19509;SDS011;9896;42.486;26.506;2022-12-10T08:13:41;34.37;;;14.93;;
19509;SDS011;9896;42.486;26.506;2022-12-10T08:16:11;34.73;;;15.53;;
19509;SDS011;9896;42.486;26.506;2022-12-10T08:18:36;35.40;;;14.33;;
19509;SDS011;9896;42.486;26.506;2022-12-10T08:21:05;43.80;;;19.23;;
19509;SDS011;9896;42.486;26.506;2022-12-10T08:23:31;47.73;;;22.17;;
19509;SDS011;9896;42.486;26.506;2022-12-10T08:25:56;61.47;;;30.13;;
19509;SDS011;9896;42.486;26.506;2022-12-10T08:28:22;65.10;;;30.83;;
19509;SDS011;9896;42.486;26.506;2022-12-10T08:30:48;67.73;;;31.50;;
19509;SDS011;9896;42.486;26.506;2022-12-10T08:33:13;54.27;;;26.77;;
19509;SDS011;9896;42.486;26.506;2022-12-10T08:35:39;59.13;;;30.17;;
19509;SDS011;9896;42.486;26.506;2022-12-10T08:38:04;60.67;;;30.53;;
19509;SDS011;9896;42.486;26.506;2022-12-10T08:40:30;65.27;;;32.07;;
19509;SDS011;9896;42.486;26.506;2022-12-10T08:42:55;61.10;;;31.00;;
19509;SDS011;9896;42.486;26.506;2022-12-10T08:45:20;74.97;;;37.17;;
19509;SDS011;9896;42.486;26.506;2022-12-10T08:47:46;73.37;;;34.73;;
19509;SDS011;9896;42.486;26.506;2022-12-10T08:50:11;73.40;;;32.03;;
19509;SDS011;9896;42.486;26.506;2022-12-10T08:52:36;58.93;;;30.50;;
19509;SDS011;9896;42.486;26.506;2022-12-10T08:55:02;60.07;;;30.53;;
19509;SDS011;9896;42.486;26.506;2022-12-10T08:57:28;60.00;;;29.83;;
19509;SDS011;9896;42.486;26.506;2022-12-10T08:59:53;52.27;;;21.93;;
19509;SDS011;9896;42.486;26.506;2022-12-10T09:02:19;42.27;;;22.00;;
19509;SDS011;9896;42.486;26.506;2022-12-10T09:04:44;54.00;;;20.10;;
19509;SDS011;9896;42.486;26.506;2022-12-10T09:07:11;45.83;;;21.47;;
19509;SDS011;9896;42.486;26.506;2022-12-10T09:09:36;38.23;;;18.53;;
19509;SDS011;9896;42.486;26.506;2022-12-10T09:12:02;38.83;;;16.60;;
19509;SDS011;9896;42.486;26.506;2022-12-10T09:14:27;32.17;;;16.00;;
19509;SDS011;9896;42.486;26.506;2022-12-10T09:16:53;34.70;;;17.07;;
19509;SDS011;9896;42.486;26.506;2022-12-10T09:19:18;33.60;;;17.30;;
19509;SDS011;9896;42.486;26.506;2022-12-10T09:21:43;36.13;;;18.20;;
19509;SDS011;9896;42.486;26.506;2022-12-10T09:24:09;31.20;;;16.80;;
19509;SDS011;9896;42.486;26.506;2022-12-10T09:26:34;37.53;;;15.33;;
19509;SDS011;9896;42.486;26.506;2022-12-10T09:28:59;32.07;;;14.83;;
19509;SDS011;9896;42.486;26.506;2022-12-10T09:31:25;37.43;;;14.00;;
19509;SDS011;9896;42.486;26.506;2022-12-10T09:33:52;33.80;;;13.80;;
19509;SDS011;9896;42.486;26.506;2022-12-10T09:36:17;28.77;;;14.73;;
19509;SDS011;9896;42.486;26.506;2022-12-10T09:38:43;37.00;;;14.23;;
19509;SDS011;9896;42.486;26.506;2022-12-10T09:44:03;29.93;;;15.63;;
19509;SDS011;9896;42.486;26.506;2022-12-10T09:46:48;34.10;;;14.27;;
19509;SDS011;9896;42.486;26.506;2022-12-10T09:49:18;39.17;;;15.73;;
19509;SDS011;9896;42.486;26.506;2022-12-10T09:51:46;23.60;;;13.30;;
19509;SDS011;9896;42.486;26.506;2022-12-10T09:54:33;30.10;;;15.27;;
19509;SDS011;9896;42.486;26.506;2022-12-10T09:56:57;31.27;;;13.53;;
19509;SDS011;9896;42.486;26.506;2022-12-10T09:59:40;30.47;;;13.30;;
19509;SDS011;9896;42.486;26.506;2022-12-10T10:04:38;46.30;;;15.40;;
19509;SDS011;9896;42.486;26.506;2022-12-10T10:07:04;30.57;;;13.07;;
19509;SDS011;9896;42.486;26.506;2022-12-10T10:09:30;29.47;;;14.33;;
19509;SDS011;9896;42.486;26.506;2022-12-10T10:11:56;25.67;;;11.87;;
19509;SDS011;9896;42.486;26.506;2022-12-10T10:14:24;27.77;;;12.23;;
19509;SDS011;9896;42.486;26.506;2022-12-10T10:16:51;26.87;;;11.47;;
19509;SDS011;9896;42.486;26.506;2022-12-10T10:19:20;26.53;;;10.43;;
19509;SDS011;9896;42.486;26.506;2022-12-10T10:21:46;20.43;;;10.17;;
19509;SDS011;9896;42.486;26.506;2022-12-10T10:24:13;29.70;;;12.13;;
19509;SDS011;9896;42.486;26.506;2022-12-10T10:26:39;30.03;;;12.20;;
19509;SDS011;9896;42.486;26.506;2022-12-10T10:29:06;27.80;;;11.80;;
19509;SDS011;9896;42.486;26.506;2022-12-10T10:31:33;25.83;;;11.43;;
19509;SDS011;9896;42.486;26.506;2022-12-10T10:34:00;27.20;;;10.27;;
19509;SDS011;9896;42.486;26.506;2022-12-10T10:36:33;28.23;;;12.97;;
19509;SDS011;9896;42.486;26.506;2022-12-10T10:41:38;22.80;;;11.27;;
19509;SDS011;9896;42.486;26.506;2022-12-10T10:44:05;27.30;;;12.80;;
19509;SDS011;9896;42.486;26.506;2022-12-10T10:46:36;26.77;;;11.87;;
19509;SDS011;9896;42.486;26.506;2022-12-10T10:51:48;28.50;;;10.73;;
19509;SDS011;9896;42.486;26.506;2022-12-10T10:54:37;29.27;;;12.17;;
19509;SDS011;9896;42.486;26.506;2022-12-10T10:57:01;23.07;;;11.03;;
19509;SDS011;9896;42.486;26.506;2022-12-10T10:59:31;28.97;;;12.50;;
19509;SDS011;9896;42.486;26.506;2022-12-10T11:02:09;24.73;;;11.97;;
19509;SDS011;9896;42.486;26.506;2022-12-10T11:04:44;28.53;;;12.57;;
19509;SDS011;9896;42.486;26.506;2022-12-10T11:09:59;24.40;;;11.43;;
19509;SDS011;9896;42.486;26.506;2022-12-10T11:12:29;21.10;;;10.10;;
19509;SDS011;9896;42.486;26.506;2022-12-10T11:14:55;27.27;;;10.93;;
19509;SDS011;9896;42.486;26.506;2022-12-10T11:17:21;31.00;;;12.20;;
19509;SDS011;9896;42.486;26.506;2022-12-10T11:20:15;30.73;;;13.00;;
19509;SDS011;9896;42.486;26.506;2022-12-10T11:22:48;25.47;;;11.20;;
19509;SDS011;9896;42.486;26.506;2022-12-10T11:25:14;28.27;;;11.77;;
19509;SDS011;9896;42.486;26.506;2022-12-10T11:30:13;22.50;;;12.33;;
19509;SDS011;9896;42.486;26.506;2022-12-10T11:52:49;21.20;;;9.80;;
19509;SDS011;9896;42.486;26.506;2022-12-10T11:55:22;21.10;;;10.20;;
19509;SDS011;9896;42.486;26.506;2022-12-10T11:58:03;24.37;;;10.70;;
19509;SDS011;9896;42.486;26.506;2022-12-10T12:00:59;26.70;;;11.33;;
19509;SDS011;9896;42.486;26.506;2022-12-10T12:03:29;20.30;;;9.60;;
19509;SDS011;9896;42.486;26.506;2022-12-10T12:06:00;20.10;;;9.70;;
19509;SDS011;9896;42.486;26.506;2022-12-10T12:16:30;21.40;;;10.70;;
19509;SDS011;9896;42.486;26.506;2022-12-10T12:19:17;25.40;;;10.67;;
19509;SDS011;9896;42.486;26.506;2022-12-10T12:21:44;23.93;;;11.10;;
19509;SDS011;9896;42.486;26.506;2022-12-10T12:26:40;24.20;;;9.67;;
19509;SDS011;9896;42.486;26.506;2022-12-10T12:29:17;22.70;;;8.80;;
19509;SDS011;9896;42.486;26.506;2022-12-10T12:31:46;24.03;;;10.37;;
19509;SDS011;9896;42.486;26.506;2022-12-10T12:36:41;23.23;;;9.40;;
19509;SDS011;9896;42.486;26.506;2022-12-10T12:46:44;21.90;;;9.30;;
19509;SDS011;9896;42.486;26.506;2022-12-10T12:49:13;16.77;;;9.47;;
19509;SDS011;9896;42.486;26.506;2022-12-10T12:51:43;19.30;;;9.50;;
19509;SDS011;9896;42.486;26.506;2022-12-10T12:54:11;26.43;;;10.17;;
19509;SDS011;9896;42.486;26.506;2022-12-10T13:01:59;27.30;;;11.90;;
19509;SDS011;9896;42.486;26.506;2022-12-10T13:04:23;31.17;;;13.67;;
19509;SDS011;9896;42.486;26.506;2022-12-10T13:09:33;28.93;;;13.00;;
19509;SDS011;9896;42.486;26.506;2022-12-10T13:14:53;29.13;;;12.23;;
19509;SDS011;9896;42.486;26.506;2022-12-10T13:17:37;29.23;;;13.00;;
19509;SDS011;9896;42.486;26.506;2022-12-10T13:22:57;22.93;;;11.03;;
19509;SDS011;9896;42.486;26.506;2022-12-10T13:30:41;24.67;;;11.63;;
19509;SDS011;9896;42.486;26.506;2022-12-10T13:33:17;18.73;;;10.87;;
19509;SDS011;9896;42.486;26.506;2022-12-10T13:35:49;20.37;;;10.93;;
19509;SDS011;9896;42.486;26.506;2022-12-10T13:38:22;20.43;;;10.30;;
19509;SDS011;9896;42.486;26.506;2022-12-10T13:40:56;18.27;;;10.03;;
19509;SDS011;9896;42.486;26.506;2022-12-10T13:43:41;19.37;;;9.63;;
19509;SDS011;9896;42.486;26.506;2022-12-10T13:48:54;24.90;;;9.53;;
19509;SDS011;9896;42.486;26.506;2022-12-10T13:51:26;18.87;;;9.60;;
19509;SDS011;9896;42.486;26.506;2022-12-10T13:56:29;18.87;;;9.70;;
19509;SDS011;9896;42.486;26.506;2022-12-10T13:59:22;25.47;;;9.47;;
19509;SDS011;9896;42.486;26.506;2022-12-10T14:07:04;23.23;;;11.53;;
19509;SDS011;9896;42.486;26.506;2022-12-10T14:09:33;28.10;;;13.03;;
19509;SDS011;9896;42.486;26.506;2022-12-10T14:12:24;32.63;;;16.10;;
19509;SDS011;9896;42.486;26.506;2022-12-10T14:15:27;36.57;;;19.37;;
19509;SDS011;9896;42.486;26.506;2022-12-10T14:17:34;49.40;;;24.13;;
19509;SDS011;9896;42.486;26.506;2022-12-10T14:20:02;51.97;;;24.40;;
19509;SDS011;9896;42.486;26.506;2022-12-10T14:22:39;43.30;;;20.63;;
19509;SDS011;9896;42.486;26.506;2022-12-10T14:25:15;43.73;;;19.43;;
19509;SDS011;9896;42.486;26.506;2022-12-10T14:27:41;30.80;;;16.87;;
19509;SDS011;9896;42.486;26.506;2022-12-10T14:30:16;33.97;;;16.70;;
19509;SDS011;9896;42.486;26.506;2022-12-10T14:32:42;24.20;;;11.23;;
19509;SDS011;9896;42.486;26.506;2022-12-10T14:35:11;29.63;;;13.53;;
19509;SDS011;9896;42.486;26.506;2022-12-10T14:37:37;30.20;;;13.87;;
19509;SDS011;9896;42.486;26.506;2022-12-10T14:40:05;31.20;;;14.17;;
19509;SDS011;9896;42.486;26.506;2022-12-10T14:42:34;38.63;;;17.63;;
19509;SDS011;9896;42.486;26.506;2022-12-10T14:45:03;36.80;;;20.47;;
19509;SDS011;9896;42.486;26.506;2022-12-10T14:47:37;47.23;;;24.43;;
19509;SDS011;9896;42.486;26.506;2022-12-10T14:50:03;53.30;;;26.03;;
19509;SDS011;9896;42.486;26.506;2022-12-10T14:52:33;39.53;;;19.87;;
19509;SDS011;9896;42.486;26.506;2022-12-10T14:55:00;39.70;;;20.80;;
19509;SDS011;9896;42.486;26.506;2022-12-10T14:57:30;38.23;;;19.50;;
19509;SDS011;9896;42.486;26.506;2022-12-10T14:59:59;48.00;;;25.10;;
19509;SDS011;9896;42.486;26.506;2022-12-10T15:02:30;48.63;;;24.57;;
19509;SDS011;9896;42.486;26.506;2022-12-10T15:04:56;46.30;;;22.13;;
19509;SDS011;9896;42.486;26.506;2022-12-10T15:07:23;41.20;;;21.77;;
19509;SDS011;9896;42.486;26.506;2022-12-10T15:09:49;31.43;;;12.50;;
19509;SDS011;9896;42.486;26.506;2022-12-10T15:12:19;26.43;;;11.07;;
19509;SDS011;9896;42.486;26.506;2022-12-10T15:14:45;24.57;;;13.73;;
19509;SDS011;9896;42.486;26.506;2022-12-10T15:19:54;32.37;;;15.63;;
19509;SDS011;9896;42.486;26.506;2022-12-10T15:22:20;30.10;;;14.93;;
19509;SDS011;9896;42.486;26.506;2022-12-10T15:24:47;56.53;;;29.10;;
19509;SDS011;9896;42.486;26.506;2022-12-10T15:29:41;63.70;;;34.07;;
19509;SDS011;9896;42.486;26.506;2022-12-10T15:34:42;68.40;;;34.40;;
19509;SDS011;9896;42.486;26.506;2022-12-10T15:37:17;77.37;;;35.30;;
19509;SDS011;9896;42.486;26.506;2022-12-10T15:39:44;45.50;;;23.60;;
19509;SDS011;9896;42.486;26.506;2022-12-10T15:42:31;36.67;;;19.23;;
19509;SDS011;9896;42.486;26.506;2022-12-10T15:45:10;26.87;;;14.70;;
19509;SDS011;9896;42.486;26.506;2022-12-10T15:47:37;37.23;;;16.63;;
19509;SDS011;9896;42.486;26.506;2022-12-10T15:50:03;40.37;;;18.63;;
19509;SDS011;9896;42.486;26.506;2022-12-10T15:52:29;42.23;;;17.53;;
19509;SDS011;9896;42.486;26.506;2022-12-10T15:54:56;31.50;;;13.23;;
19509;SDS011;9896;42.486;26.506;2022-12-10T15:57:23;41.10;;;19.77;;
19509;SDS011;9896;42.486;26.506;2022-12-10T15:59:50;29.97;;;16.73;;
19509;SDS011;9896;42.486;26.506;2022-12-10T16:04:51;37.10;;;19.53;;
19509;SDS011;9896;42.486;26.506;2022-12-10T16:07:16;39.07;;;19.53;;
19509;SDS011;9896;42.486;26.506;2022-12-10T16:09:42;36.73;;;17.37;;
19509;SDS011;9896;42.486;26.506;2022-12-10T16:12:09;26.20;;;15.97;;
19509;SDS011;9896;42.486;26.506;2022-12-10T16:14:36;30.47;;;15.10;;
19509;SDS011;9896;42.486;26.506;2022-12-10T16:17:01;28.93;;;13.70;;
19509;SDS011;9896;42.486;26.506;2022-12-10T16:19:27;30.10;;;14.47;;
19509;SDS011;9896;42.486;26.506;2022-12-10T16:21:52;31.27;;;15.67;;
19509;SDS011;9896;42.486;26.506;2022-12-10T16:24:17;31.10;;;15.40;;
19509;SDS011;9896;42.486;26.506;2022-12-10T16:26:43;29.30;;;13.67;;
19509;SDS011;9896;42.486;26.506;2022-12-10T16:29:09;38.70;;;15.53;;
19509;SDS011;9896;42.486;26.506;2022-12-10T16:31:34;28.90;;;11.20;;
19509;SDS011;9896;42.486;26.506;2022-12-10T16:33:59;29.37;;;12.73;;